sensor_id;sensor_type;location;lat;lon;timestamp;pressure;altitude;pressure_sealevel;temperature;humidity
6395;BME280;3230;42.588;23.358;2023-03-22T00:01:26;90665.63;;;7.55;100.00
6395;BME280;3230;42.588;23.358;2023-03-22T00:03:55;90671.84;;;7.59;100.00
6395;BME280;3230;42.588;23.358;2023-03-22T00:06:21;90664.53;;;7.56;100.00
6395;BME280;3230;42.588;23.358;2023-03-22T00:08:51;90664.56;;;7.61;100.00
6395;BME280;3230;42.588;23.358;2023-03-22T00:11:18;90667.16;;;7.56;100.00
6395;BME280;3230;42.588;23.358;2023-03-22T00:13:44;90669.78;;;7.61;100.00
6395;BME280;3230;42.588;23.358;2023-03-22T00:16:11;90662.44;;;7.63;100.00
6395;BME280;3230;42.588;23.358;2023-03-22T00:18:37;90674.44;;;7.75;100.00
6395;BME280;3230;42.588;23.358;2023-03-22T00:21:02;90663.25;;;7.64;100.00
6395;BME280;3230;42.588;23.358;2023-03-22T00:23:28;90667.97;;;7.51;100.00
6395;BME280;3230;42.588;23.358;2023-03-22T00:25:54;90664.06;;;7.44;100.00
6395;BME280;3230;42.588;23.358;2023-03-22T00:28:20;90655.47;;;7.33;100.00
6395;BME280;3230;42.588;23.358;2023-03-22T00:30:59;90661.47;;;7.39;100.00
6395;BME280;3230;42.588;23.358;2023-03-22T00:33:25;90658.06;;;7.28;100.00
6395;BME280;3230;42.588;23.358;2023-03-22T00:35:52;90656.00;;;7.30;100.00
6395;BME280;3230;42.588;23.358;2023-03-22T00:38:19;90650.25;;;7.33;100.00
6395;BME280;3230;42.588;23.358;2023-03-22T00:40:44;90655.72;;;7.31;100.00
6395;BME280;3230;42.588;23.358;2023-03-22T00:43:10;90654.69;;;7.27;100.00
6395;BME280;3230;42.588;23.358;2023-03-22T00:45:36;90646.59;;;7.18;100.00
6395;BME280;3230;42.588;23.358;2023-03-22T00:48:04;90653.13;;;7.26;100.00
6395;BME280;3230;42.588;23.358;2023-03-22T00:50:29;90653.38;;;7.19;100.00
6395;BME280;3230;42.588;23.358;2023-03-22T00:52:55;90655.75;;;7.11;100.00
6395;BME280;3230;42.588;23.358;2023-03-22T00:55:20;90644.53;;;7.20;100.00
6395;BME280;3230;42.588;23.358;2023-03-22T00:57:45;90642.19;;;7.09;100.00
6395;BME280;3230;42.588;23.358;2023-03-22T01:00:11;90648.19;;;6.88;100.00
6395;BME280;3230;42.588;23.358;2023-03-22T01:02:39;90651.59;;;6.99;100.00
6395;BME280;3230;42.588;23.358;2023-03-22T01:05:05;90635.41;;;6.97;100.00
6395;BME280;3230;42.588;23.358;2023-03-22T01:07:31;90650.53;;;7.00;100.00
6395;BME280;3230;42.588;23.358;2023-03-22T01:09:57;90641.16;;;7.10;100.00
6395;BME280;3230;42.588;23.358;2023-03-22T01:12:23;90641.16;;;7.15;100.00
6395;BME280;3230;42.588;23.358;2023-03-22T01:14:48;90630.47;;;7.11;100.00
6395;BME280;3230;42.588;23.358;2023-03-22T01:17:14;90630.47;;;7.06;100.00
6395;BME280;3230;42.588;23.358;2023-03-22T01:19:39;90629.44;;;7.07;100.00
6395;BME280;3230;42.588;23.358;2023-03-22T01:22:05;90629.94;;;7.14;100.00
6395;BME280;3230;42.588;23.358;2023-03-22T01:24:31;90634.38;;;7.14;100.00
6395;BME280;3230;42.588;23.358;2023-03-22T01:26:57;90630.22;;;7.08;100.00
6395;BME280;3230;42.588;23.358;2023-03-22T01:29:23;90623.19;;;6.93;100.00
6395;BME280;3230;42.588;23.358;2023-03-22T01:31:49;90625.28;;;6.96;100.00
6395;BME280;3230;42.588;23.358;2023-03-22T01:34:14;90627.09;;;7.06;100.00
6395;BME280;3230;42.588;23.358;2023-03-22T01:36:40;90618.22;;;6.96;100.00
6395;BME280;3230;42.588;23.358;2023-03-22T01:39:05;90623.19;;;6.93;100.00
6395;BME280;3230;42.588;23.358;2023-03-22T01:41:31;90619.53;;;6.99;100.00
6395;BME280;3230;42.588;23.358;2023-03-22T01:46:33;90611.72;;;6.99;100.00
6395;BME280;3230;42.588;23.358;2023-03-22T01:49:00;90617.72;;;6.99;100.00
6395;BME280;3230;42.588;23.358;2023-03-22T01:51:26;90617.72;;;6.94;100.00
6395;BME280;3230;42.588;23.358;2023-03-22T01:53:59;90616.91;;;6.99;100.00
6395;BME280;3230;42.588;23.358;2023-03-22T01:56:29;90617.47;;;6.96;100.00
6395;BME280;3230;42.588;23.358;2023-03-22T01:58:55;90614.56;;;6.82;100.00
6395;BME280;3230;42.588;23.358;2023-03-22T02:01:22;90606.50;;;6.99;100.00
6395;BME280;3230;42.588;23.358;2023-03-22T02:04:07;90608.06;;;6.79;100.00
6395;BME280;3230;42.588;23.358;2023-03-22T02:06:34;90613.56;;;6.93;100.00
6395;BME280;3230;42.588;23.358;2023-03-22T02:09:07;90612.50;;;6.79;100.00
6395;BME280;3230;42.588;23.358;2023-03-22T02:11:39;90619.03;;;6.97;100.00
6395;BME280;3230;42.588;23.358;2023-03-22T02:14:30;90609.63;;;7.06;100.00
6395;BME280;3230;42.588;23.358;2023-03-22T02:31:30;90617.72;;;6.84;100.00
6395;BME280;3230;42.588;23.358;2023-03-22T02:39:06;90626.81;;;7.07;100.00
6395;BME280;3230;42.588;23.358;2023-03-22T02:42:03;90625.28;;;6.96;100.00
6395;BME280;3230;42.588;23.358;2023-03-22T02:47:50;90626.81;;;6.92;100.00
6395;BME280;3230;42.588;23.358;2023-03-22T02:50:28;90629.44;;;6.76;100.00
6395;BME280;3230;42.588;23.358;2023-03-22T02:53:18;90633.06;;;6.60;100.00
6395;BME280;3230;42.588;23.358;2023-03-22T02:55:58;90624.72;;;6.52;100.00
6395;BME280;3230;42.588;23.358;2023-03-22T02:58:33;90631.78;;;6.67;100.00
6395;BME280;3230;42.588;23.358;2023-03-22T03:01:02;90635.66;;;6.60;100.00
6395;BME280;3230;42.588;23.358;2023-03-22T03:03:30;90633.31;;;6.58;100.00
6395;BME280;3230;42.588;23.358;2023-03-22T03:06:00;90629.69;;;6.64;100.00
6395;BME280;3230;42.588;23.358;2023-03-22T03:08:29;90638.00;;;6.56;100.00
6395;BME280;3230;42.588;23.358;2023-03-22T03:10:55;90635.38;;;6.46;100.00
6395;BME280;3230;42.588;23.358;2023-03-22T03:13:20;90631.22;;;6.39;100.00
6395;BME280;3230;42.588;23.358;2023-03-22T03:15:51;90639.03;;;6.50;100.00
6395;BME280;3230;42.588;23.358;2023-03-22T03:18:28;90639.56;;;6.52;100.00
6395;BME280;3230;42.588;23.358;2023-03-22T03:23:46;90648.41;;;6.51;100.00
6395;BME280;3230;42.588;23.358;2023-03-22T03:26:22;90639.03;;;6.55;100.00
6395;BME280;3230;42.588;23.358;2023-03-22T03:28:59;90639.03;;;6.55;100.00
6395;BME280;3230;42.588;23.358;2023-03-22T03:36:33;90629.66;;;6.38;100.00
6395;BME280;3230;42.588;23.358;2023-03-22T03:39:04;90634.31;;;6.36;100.00
6395;BME280;3230;42.588;23.358;2023-03-22T03:41:33;90634.34;;;6.47;100.00
6395;BME280;3230;42.588;23.358;2023-03-22T03:44:00;90638.00;;;6.51;100.00
6395;BME280;3230;42.588;23.358;2023-03-22T03:46:26;90635.13;;;6.47;100.00
6395;BME280;3230;42.588;23.358;2023-03-22T03:48:55;90640.59;;;6.46;100.00
6395;BME280;3230;42.588;23.358;2023-03-22T03:51:21;90642.94;;;6.47;100.00
6395;BME280;3230;42.588;23.358;2023-03-22T03:53:47;90637.72;;;6.47;100.00
6395;BME280;3230;42.588;23.358;2023-03-22T03:56:12;90638.22;;;6.44;100.00
6395;BME280;3230;42.588;23.358;2023-03-22T03:58:38;90640.06;;;6.44;100.00
6395;BME280;3230;42.588;23.358;2023-03-22T04:01:03;90644.44;;;6.28;100.00
6395;BME280;3230;42.588;23.358;2023-03-22T04:03:30;90637.19;;;6.40;100.00
6395;BME280;3230;42.588;23.358;2023-03-22T04:05:55;90627.78;;;6.18;100.00
6395;BME280;3230;42.588;23.358;2023-03-22T04:08:21;90646.53;;;6.26;100.00
6395;BME280;3230;42.588;23.358;2023-03-22T04:10:50;90647.31;;;6.31;100.00
6395;BME280;3230;42.588;23.358;2023-03-22T04:13:16;90650.97;;;6.30;100.00
6395;BME280;3230;42.588;23.358;2023-03-22T04:15:42;90652.00;;;6.29;100.00
6395;BME280;3230;42.588;23.358;2023-03-22T04:18:08;90648.34;;;6.25;100.00
6395;BME280;3230;42.588;23.358;2023-03-22T04:20:35;90648.09;;;6.32;100.00
6395;BME280;3230;42.588;23.358;2023-03-22T04:23:03;90655.41;;;6.35;100.00
6395;BME280;3230;42.588;23.358;2023-03-22T04:25:28;90655.34;;;6.24;100.00
6395;BME280;3230;42.588;23.358;2023-03-22T04:27:54;90656.66;;;6.17;100.00
6395;BME280;3230;42.588;23.358;2023-03-22T04:30:19;90656.66;;;6.17;100.00
6395;BME280;3230;42.588;23.358;2023-03-22T04:32:46;90668.16;;;6.36;100.00
6395;BME280;3230;42.588;23.358;2023-03-22T04:35:12;90668.13;;;6.26;100.00
6395;BME280;3230;42.588;23.358;2023-03-22T04:37:38;90665.81;;;6.35;100.00
6395;BME280;3230;42.588;23.358;2023-03-22T04:40:04;90675.97;;;6.42;100.00
6395;BME280;3230;42.588;23.358;2023-03-22T04:42:32;90670.25;;;6.45;100.00
6395;BME280;3230;42.588;23.358;2023-03-22T04:44:58;90675.97;;;6.42;100.00
6395;BME280;3230;42.588;23.358;2023-03-22T04:47:23;90672.88;;;6.45;100.00
6395;BME280;3230;42.588;23.358;2023-03-22T04:49:48;90681.69;;;6.38;100.00
6395;BME280;3230;42.588;23.358;2023-03-22T04:52:14;90677.75;;;6.31;100.00
6395;BME280;3230;42.588;23.358;2023-03-22T04:54:40;90681.91;;;6.21;100.00
6395;BME280;3230;42.588;23.358;2023-03-22T04:57:05;90674.88;;;6.27;100.00
6395;BME280;3230;42.588;23.358;2023-03-22T04:59:31;90684.03;;;6.35;100.00
6395;BME280;3230;42.588;23.358;2023-03-22T05:01:56;90682.19;;;6.35;100.00
6395;BME280;3230;42.588;23.358;2023-03-22T05:04:22;90682.19;;;6.40;100.00
6395;BME280;3230;42.588;23.358;2023-03-22T05:06:47;90687.94;;;6.43;100.00
6395;BME280;3230;42.588;23.358;2023-03-22T05:09:13;90690.00;;;6.40;100.00
6395;BME280;3230;42.588;23.358;2023-03-22T05:11:39;90701.50;;;6.45;100.00
6395;BME280;3230;42.588;23.358;2023-03-22T05:14:06;90702.53;;;6.44;100.00
6395;BME280;3230;42.588;23.358;2023-03-22T05:16:32;90701.53;;;6.60;100.00
6395;BME280;3230;42.588;23.358;2023-03-22T05:18:58;90700.25;;;6.63;100.00
6395;BME280;3230;42.588;23.358;2023-03-22T05:21:28;90705.19;;;6.64;100.00
6395;BME280;3230;42.588;23.358;2023-03-22T05:24:00;90706.97;;;6.59;100.00
6395;BME280;3230;42.588;23.358;2023-03-22T05:26:26;90701.00;;;6.68;100.00
6395;BME280;3230;42.588;23.358;2023-03-22T05:28:52;90710.13;;;6.66;100.00
6395;BME280;3230;42.588;23.358;2023-03-22T05:31:19;90713.53;;;6.66;100.00
6395;BME280;3230;42.588;23.358;2023-03-22T05:33:47;90707.28;;;6.67;100.00
6395;BME280;3230;42.588;23.358;2023-03-22T05:36:12;90713.25;;;6.68;100.00
6395;BME280;3230;42.588;23.358;2023-03-22T05:38:38;90721.56;;;6.65;100.00
6395;BME280;3230;42.588;23.358;2023-03-22T05:41:03;90700.25;;;6.73;100.00
6395;BME280;3230;42.588;23.358;2023-03-22T05:43:29;90710.44;;;6.80;100.00
6395;BME280;3230;42.588;23.358;2023-03-22T05:45:54;90710.97;;;6.87;100.00
6395;BME280;3230;42.588;23.358;2023-03-22T05:48:20;90716.72;;;6.94;100.00
6395;BME280;3230;42.588;23.358;2023-03-22T05:50:45;90715.38;;;6.92;100.00
6395;BME280;3230;42.588;23.358;2023-03-22T05:53:11;90720.31;;;6.88;100.00
6395;BME280;3230;42.588;23.358;2023-03-22T05:55:36;90726.06;;;6.95;100.00
6395;BME280;3230;42.588;23.358;2023-03-22T05:58:02;90725.56;;;7.03;100.00
6395;BME280;3230;42.588;23.358;2023-03-22T06:00:29;90739.66;;;7.13;100.00
6395;BME280;3230;42.588;23.358;2023-03-22T06:02:57;90737.03;;;7.18;100.00
6395;BME280;3230;42.588;23.358;2023-03-22T06:05:27;90738.34;;;7.20;100.00
6395;BME280;3230;42.588;23.358;2023-03-22T06:07:53;90736.53;;;7.26;100.00
6395;BME280;3230;42.588;23.358;2023-03-22T06:10:18;90740.94;;;7.26;100.00
6395;BME280;3230;42.588;23.358;2023-03-22T06:12:44;90746.94;;;7.36;100.00
6395;BME280;3230;42.588;23.358;2023-03-22T06:15:10;90744.38;;;7.42;100.00
6395;BME280;3230;42.588;23.358;2023-03-22T06:17:36;90756.09;;;7.49;100.00
6395;BME280;3230;42.588;23.358;2023-03-22T06:20:05;90755.56;;;7.58;100.00
6395;BME280;3230;42.588;23.358;2023-03-22T06:22:34;90753.47;;;7.49;100.00
6395;BME280;3230;42.588;23.358;2023-03-22T06:25:00;90749.06;;;7.55;100.00
6395;BME280;3230;42.588;23.358;2023-03-22T06:27:25;90757.88;;;7.69;100.00
6395;BME280;3230;42.588;23.358;2023-03-22T06:29:50;90753.47;;;7.65;100.00
6395;BME280;3230;42.588;23.358;2023-03-22T06:32:19;90753.75;;;7.53;100.00
6395;BME280;3230;42.588;23.358;2023-03-22T06:34:48;90756.34;;;7.68;100.00
6395;BME280;3230;42.588;23.358;2023-03-22T06:37:13;90757.09;;;7.74;100.00
6395;BME280;3230;42.588;23.358;2023-03-22T06:39:38;90756.84;;;7.71;100.00
6395;BME280;3230;42.588;23.358;2023-03-22T06:42:04;90761.53;;;7.79;100.00
6395;BME280;3230;42.588;23.358;2023-03-22T06:44:29;90765.19;;;7.83;100.00
6395;BME280;3230;42.588;23.358;2023-03-22T06:46:55;90760.75;;;7.89;100.00
6395;BME280;3230;42.588;23.358;2023-03-22T06:49:20;90763.63;;;7.87;100.00
6395;BME280;3230;42.588;23.358;2023-03-22T06:51:46;90763.09;;;7.85;100.00
6395;BME280;3230;42.588;23.358;2023-03-22T06:54:12;90767.28;;;7.81;100.00
6395;BME280;3230;42.588;23.358;2023-03-22T06:56:38;90767.00;;;7.82;100.00
6395;BME280;3230;42.588;23.358;2023-03-22T06:59:03;90770.13;;;7.90;100.00
6395;BME280;3230;42.588;23.358;2023-03-22T07:01:29;90774.31;;;7.96;100.00
6395;BME280;3230;42.588;23.358;2023-03-22T07:03:54;90775.59;;;7.98;100.00
6395;BME280;3230;42.588;23.358;2023-03-22T07:06:20;90788.66;;;8.09;100.00
6395;BME280;3230;42.588;23.358;2023-03-22T07:08:45;90788.66;;;8.09;100.00
6395;BME280;3230;42.588;23.358;2023-03-22T07:11:11;90788.38;;;7.95;100.00
6395;BME280;3230;42.588;23.358;2023-03-22T07:13:36;90787.09;;;7.87;100.00
6395;BME280;3230;42.588;23.358;2023-03-22T07:16:02;90793.06;;;8.03;100.00
6395;BME280;3230;42.588;23.358;2023-03-22T07:18:28;90791.75;;;8.16;100.00
6395;BME280;3230;42.588;23.358;2023-03-22T07:20:54;90803.72;;;8.32;100.00
6395;BME280;3230;42.588;23.358;2023-03-22T07:23:20;90807.38;;;8.42;100.00
6395;BME280;3230;42.588;23.358;2023-03-22T07:25:47;90800.91;;;8.08;100.00
6395;BME280;3230;42.588;23.358;2023-03-22T07:28:13;90816.28;;;8.10;100.00
6395;BME280;3230;42.588;23.358;2023-03-22T07:30:39;90804.81;;;8.16;100.00
6395;BME280;3230;42.588;23.358;2023-03-22T07:33:06;90816.03;;;8.01;100.00
6395;BME280;3230;42.588;23.358;2023-03-22T07:35:32;90809.78;;;8.02;100.00
6395;BME280;3230;42.588;23.358;2023-03-22T07:37:58;90819.69;;;8.00;100.00
6395;BME280;3230;42.588;23.358;2023-03-22T07:40:25;90812.63;;;8.06;100.00
6395;BME280;3230;42.588;23.358;2023-03-22T07:42:50;90813.16;;;8.08;100.00
6395;BME280;3230;42.588;23.358;2023-03-22T07:45:20;90825.69;;;8.11;100.00
6395;BME280;3230;42.588;23.358;2023-03-22T07:47:46;90826.72;;;8.25;100.00
6395;BME280;3230;42.588;23.358;2023-03-22T07:50:12;90831.44;;;8.23;100.00
6395;BME280;3230;42.588;23.358;2023-03-22T07:52:41;90828.81;;;8.18;100.00
6395;BME280;3230;42.588;23.358;2023-03-22T07:55:09;90831.91;;;8.30;100.00
6395;BME280;3230;42.588;23.358;2023-03-22T07:57:35;90835.81;;;8.38;100.00
6395;BME280;3230;42.588;23.358;2023-03-22T08:00:01;90830.63;;;8.33;100.00
6395;BME280;3230;42.588;23.358;2023-03-22T08:02:29;90832.72;;;8.31;100.00
6395;BME280;3230;42.588;23.358;2023-03-22T08:04:54;90838.72;;;8.37;100.00
6395;BME280;3230;42.588;23.358;2023-03-22T08:07:20;90830.88;;;8.26;100.00
6395;BME280;3230;42.588;23.358;2023-03-22T08:09:46;90839.47;;;8.27;100.00
6395;BME280;3230;42.588;23.358;2023-03-22T08:12:12;90836.63;;;8.33;100.00
6395;BME280;3230;42.588;23.358;2023-03-22T08:14:38;90839.22;;;8.49;100.00
6395;BME280;3230;42.588;23.358;2023-03-22T08:17:06;90833.72;;;8.35;100.00
6395;BME280;3230;42.588;23.358;2023-03-22T08:19:33;90844.16;;;8.45;100.00
6395;BME280;3230;42.588;23.358;2023-03-22T08:21:58;90836.09;;;8.47;100.00
6395;BME280;3230;42.588;23.358;2023-03-22T08:24:25;90837.66;;;8.43;100.00
6395;BME280;3230;42.588;23.358;2023-03-22T08:26:50;90834.78;;;8.39;100.00
6395;BME280;3230;42.588;23.358;2023-03-22T08:29:16;90841.06;;;8.23;100.00
6395;BME280;3230;42.588;23.358;2023-03-22T08:31:43;90846.00;;;8.40;100.00
6395;BME280;3230;42.588;23.358;2023-03-22T08:34:08;90851.22;;;8.55;100.00
6395;BME280;3230;42.588;23.358;2023-03-22T08:36:33;90843.66;;;8.43;100.00
6395;BME280;3230;42.588;23.358;2023-03-22T08:38:59;90843.94;;;8.47;100.00
6395;BME280;3230;42.588;23.358;2023-03-22T08:41:26;90848.88;;;8.54;100.00
6395;BME280;3230;42.588;23.358;2023-03-22T08:43:51;90868.47;;;8.36;100.00
6395;BME280;3230;42.588;23.358;2023-03-22T08:46:16;90856.44;;;8.45;100.00
6395;BME280;3230;42.588;23.358;2023-03-22T08:48:42;90853.06;;;8.34;100.00
6395;BME280;3230;42.588;23.358;2023-03-22T08:51:18;90859.31;;;8.38;100.00
6395;BME280;3230;42.588;23.358;2023-03-22T08:53:44;90852.28;;;8.28;100.00
6395;BME280;3230;42.588;23.358;2023-03-22T08:56:10;90849.44;;;8.14;100.00
6395;BME280;3230;42.588;23.358;2023-03-22T08:58:35;90854.38;;;8.31;100.00
6395;BME280;3230;42.588;23.358;2023-03-22T09:01:01;90852.28;;;8.33;100.00
6395;BME280;3230;42.588;23.358;2023-03-22T09:03:27;90858.00;;;8.30;100.00
6395;BME280;3230;42.588;23.358;2023-03-22T09:05:52;90859.84;;;8.35;100.00
6395;BME280;3230;42.588;23.358;2023-03-22T09:08:18;90864.81;;;8.31;100.00
6395;BME280;3230;42.588;23.358;2023-03-22T09:10:43;90856.72;;;8.54;100.00
6395;BME280;3230;42.588;23.358;2023-03-22T09:13:11;90864.81;;;8.47;100.00
6395;BME280;3230;42.588;23.358;2023-03-22T09:15:39;90865.84;;;8.51;100.00
6395;BME280;3230;42.588;23.358;2023-03-22T09:18:04;90865.59;;;8.47;100.00
6395;BME280;3230;42.588;23.358;2023-03-22T09:20:29;90858.50;;;8.69;100.00
6395;BME280;3230;42.588;23.358;2023-03-22T09:22:55;90866.31;;;8.79;100.00
6395;BME280;3230;42.588;23.358;2023-03-22T09:25:21;90872.56;;;8.78;100.00
6395;BME280;3230;42.588;23.358;2023-03-22T09:27:46;90865.28;;;8.64;100.00
6395;BME280;3230;42.588;23.358;2023-03-22T09:30:12;90865.06;;;8.51;100.00
6395;BME280;3230;42.588;23.358;2023-03-22T09:32:37;90867.66;;;8.56;100.00
6395;BME280;3230;42.588;23.358;2023-03-22T09:35:03;90866.91;;;8.50;100.00
6395;BME280;3230;42.588;23.358;2023-03-22T09:37:28;90866.59;;;8.62;100.00
6395;BME280;3230;42.588;23.358;2023-03-22T09:39:55;90868.97;;;8.69;100.00
6395;BME280;3230;42.588;23.358;2023-03-22T09:42:33;90862.13;;;8.78;100.00
6395;BME280;3230;42.588;23.358;2023-03-22T09:45:04;90856.91;;;8.83;100.00
6395;BME280;3230;42.588;23.358;2023-03-22T09:47:35;90862.63;;;8.90;100.00
6395;BME280;3230;42.588;23.358;2023-03-22T09:50:09;90857.63;;;8.99;100.00
6395;BME280;3230;42.588;23.358;2023-03-22T09:52:38;90865.81;;;8.77;100.00
6395;BME280;3230;42.588;23.358;2023-03-22T09:58:28;90875.72;;;8.80;100.00
6395;BME280;3230;42.588;23.358;2023-03-22T10:06:17;90878.09;;;8.66;100.00
6395;BME280;3230;42.588;23.358;2023-03-22T10:09:09;90874.69;;;8.66;100.00
6395;BME280;3230;42.588;23.358;2023-03-22T10:14:33;90886.97;;;8.65;100.00
6395;BME280;3230;42.588;23.358;2023-03-22T10:17:04;90880.69;;;8.76;100.00
6395;BME280;3230;42.588;23.358;2023-03-22T10:19:47;90888.50;;;8.87;100.00
6395;BME280;3230;42.588;23.358;2023-03-22T10:22:17;90867.59;;;8.87;100.00
6395;BME280;3230;42.588;23.358;2023-03-22T10:24:48;90880.69;;;8.76;100.00
6395;BME280;3230;42.588;23.358;2023-03-22T10:27:19;90891.88;;;8.87;100.00
6395;BME280;3230;42.588;23.358;2023-03-22T10:29:50;90883.03;;;8.78;100.00
6395;BME280;3230;42.588;23.358;2023-03-22T10:32:21;90884.09;;;8.77;100.00
6395;BME280;3230;42.588;23.358;2023-03-22T10:34:50;90879.63;;;8.77;100.00
6395;BME280;3230;42.588;23.358;2023-03-22T10:37:23;90889.81;;;8.79;100.00
6395;BME280;3230;42.588;23.358;2023-03-22T10:39:52;90883.53;;;8.85;100.00
6395;BME280;3230;42.588;23.358;2023-03-22T10:42:21;90883.47;;;9.06;100.00
6395;BME280;3230;42.588;23.358;2023-03-22T10:44:54;90886.91;;;8.91;100.00
6395;BME280;3230;42.588;23.358;2023-03-22T10:47:56;90883.47;;;9.01;100.00
6395;BME280;3230;42.588;23.358;2023-03-22T10:50:28;90885.06;;;9.02;100.00
6395;BME280;3230;42.588;23.358;2023-03-22T10:55:47;90884.25;;;9.06;100.00
6395;BME280;3230;42.588;23.358;2023-03-22T10:58:15;90888.69;;;9.06;100.00
6395;BME280;3230;42.588;23.358;2023-03-22T11:01:12;90880.03;;;9.21;100.00
6395;BME280;3230;42.588;23.358;2023-03-22T11:03:43;90876.28;;;9.32;100.00
6395;BME280;3230;42.588;23.358;2023-03-22T11:06:17;90880.75;;;9.26;100.00
6395;BME280;3230;42.588;23.358;2023-03-22T11:08:44;90876.13;;;9.08;100.00
6395;BME280;3230;42.588;23.358;2023-03-22T11:16:40;90876.09;;;9.23;100.00
6395;BME280;3230;42.588;23.358;2023-03-22T11:19:13;90865.34;;;9.25;100.00
6395;BME280;3230;42.588;23.358;2023-03-22T11:21:41;90875.63;;;9.11;100.00
6395;BME280;3230;42.588;23.358;2023-03-22T11:24:12;90863.25;;;9.27;100.00
6395;BME280;3230;42.588;23.358;2023-03-22T11:26:39;90857.69;;;9.44;100.00
6395;BME280;3230;42.588;23.358;2023-03-22T11:29:16;90863.38;;;9.51;100.00
6395;BME280;3230;42.588;23.358;2023-03-22T11:31:56;90859.41;;;9.59;100.00
6395;BME280;3230;42.588;23.358;2023-03-22T11:34:27;90856.34;;;9.47;100.00
6395;BME280;3230;42.588;23.358;2023-03-22T11:36:54;90863.63;;;9.55;100.00
6395;BME280;3230;42.588;23.358;2023-03-22T11:39:26;90857.16;;;9.42;100.00
6395;BME280;3230;42.588;23.358;2023-03-22T11:41:57;90868.13;;;9.44;100.00
6395;BME280;3230;42.588;23.358;2023-03-22T11:44:27;90858.75;;;9.38;100.00
6395;BME280;3230;42.588;23.358;2023-03-22T11:47:00;90863.25;;;9.22;100.00
6395;BME280;3230;42.588;23.358;2023-03-22T11:49:37;90864.19;;;9.47;100.00
6395;BME280;3230;42.588;23.358;2023-03-22T11:52:14;90869.47;;;9.41;100.00
6395;BME280;3230;42.588;23.358;2023-03-22T11:54:41;90864.75;;;9.38;100.00
6395;BME280;3230;42.588;23.358;2023-03-22T11:57:13;90863.09;;;9.03;100.00
6395;BME280;3230;42.588;23.358;2023-03-22T11:59:56;90866.25;;;8.94;100.00
6395;BME280;3230;42.588;23.358;2023-03-22T12:02:27;90871.94;;;9.07;100.00
6395;BME280;3230;42.588;23.358;2023-03-22T12:04:59;90867.53;;;9.02;100.00
6395;BME280;3230;42.588;23.358;2023-03-22T12:07:30;90870.22;;;8.87;100.00
6395;BME280;3230;42.588;23.358;2023-03-22T12:10:04;90869.94;;;8.88;100.00
6395;BME280;3230;42.588;23.358;2023-03-22T12:12:39;90863.59;;;9.10;100.00
6395;BME280;3230;42.588;23.358;2023-03-22T12:15:18;90869.69;;;8.85;100.00
6395;BME280;3230;42.588;23.358;2023-03-22T12:20:38;90864.72;;;8.78;100.00
6395;BME280;3230;42.588;23.358;2023-03-22T12:23:13;90860.22;;;8.99;100.00
6395;BME280;3230;42.588;23.358;2023-03-22T12:25:43;90858.88;;;9.07;100.00
6395;BME280;3230;42.588;23.358;2023-03-22T12:28:17;90862.00;;;9.14;100.00
6395;BME280;3230;42.588;23.358;2023-03-22T12:30:50;90853.66;;;9.07;100.00
6395;BME280;3230;42.588;23.358;2023-03-22T12:35:50;90868.25;;;9.18;100.00
6395;BME280;3230;42.588;23.358;2023-03-22T12:40:45;90861.81;;;9.50;100.00
6395;BME280;3230;42.588;23.358;2023-03-22T12:45:50;90860.50;;;9.92;100.00
6395;BME280;3230;42.588;23.358;2023-03-22T12:48:28;90853.19;;;9.89;100.00
6395;BME280;3230;42.588;23.358;2023-03-22T12:50:59;90859.22;;;10.24;100.00
6395;BME280;3230;42.588;23.358;2023-03-22T12:53:33;90863.41;;;10.20;100.00
6395;BME280;3230;42.588;23.358;2023-03-22T12:55:59;90863.47;;;10.15;100.00
6395;BME280;3230;42.588;23.358;2023-03-22T12:58:26;90856.00;;;10.33;100.00
6395;BME280;3230;42.588;23.358;2023-03-22T13:00:54;90859.09;;;10.35;99.93
6395;BME280;3230;42.588;23.358;2023-03-22T13:03:26;90852.72;;;10.76;97.34
6395;BME280;3230;42.588;23.358;2023-03-22T13:06:53;90858.53;;;10.97;96.31
6395;BME280;3230;42.588;23.358;2023-03-22T13:17:47;90857.41;;;10.79;95.87
6395;BME280;3230;42.588;23.358;2023-03-22T13:27:57;90849.44;;;10.65;96.63
6395;BME280;3230;42.588;23.358;2023-03-22T13:30:47;90848.44;;;10.26;98.48
6395;BME280;3230;42.588;23.358;2023-03-22T13:33:19;90852.56;;;10.37;99.48
6395;BME280;3230;42.588;23.358;2023-03-22T13:36:32;90850.16;;;10.41;99.86
6395;BME280;3230;42.588;23.358;2023-03-22T13:38:40;90853.09;;;10.00;100.00
6395;BME280;3230;42.588;23.358;2023-03-22T13:41:25;90854.72;;;9.96;99.81
6395;BME280;3230;42.588;23.358;2023-03-22T13:43:53;90856.84;;;9.88;100.00
6395;BME280;3230;42.588;23.358;2023-03-22T13:59:00;90848.78;;;9.45;100.00
6395;BME280;3230;42.588;23.358;2023-03-22T14:01:36;90844.00;;;9.52;100.00
6395;BME280;3230;42.588;23.358;2023-03-22T14:04:14;90855.31;;;9.48;100.00
6395;BME280;3230;42.588;23.358;2023-03-22T14:06:47;90851.59;;;9.54;100.00
6395;BME280;3230;42.588;23.358;2023-03-22T14:09:50;90856.69;;;9.30;100.00
6395;BME280;3230;42.588;23.358;2023-03-22T14:12:24;90859.91;;;9.16;100.00
6395;BME280;3230;42.588;23.358;2023-03-22T14:14:59;90853.53;;;9.38;100.00
6395;BME280;3230;42.588;23.358;2023-03-22T14:17:49;90848.78;;;9.40;100.00
6395;BME280;3230;42.588;23.358;2023-03-22T14:20:19;90854.53;;;9.42;100.00
6395;BME280;3230;42.588;23.358;2023-03-22T14:23:13;90843.84;;;9.38;100.00
6395;BME280;3230;42.588;23.358;2023-03-22T14:25:40;90855.63;;;9.36;100.00
6395;BME280;3230;42.588;23.358;2023-03-22T14:28:06;90848.19;;;9.53;100.00
6395;BME280;3230;42.588;23.358;2023-03-22T14:33:05;90863.50;;;9.75;100.00
6395;BME280;3230;42.588;23.358;2023-03-22T14:35:48;90858.00;;;9.77;100.00
6395;BME280;3230;42.588;23.358;2023-03-22T14:38:20;90866.31;;;9.84;100.00
6395;BME280;3230;42.588;23.358;2023-03-22T14:40:46;90871.13;;;9.72;100.00
6395;BME280;3230;42.588;23.358;2023-03-22T14:45:44;90873.25;;;9.65;100.00
6395;BME280;3230;42.588;23.358;2023-03-22T14:50:47;90878.00;;;9.57;100.00
6395;BME280;3230;42.588;23.358;2023-03-22T14:53:15;90875.88;;;9.65;100.00
6395;BME280;3230;42.588;23.358;2023-03-22T14:55:43;90878.53;;;9.54;100.00
6395;BME280;3230;42.588;23.358;2023-03-22T14:58:14;90871.72;;;9.58;100.00
6395;BME280;3230;42.588;23.358;2023-03-22T15:00:41;90878.88;;;9.82;100.00